Legend Of The Seas — C6SL5 — position and weather

sailwx.info

Track history (hours):
 
Tides and Currents Weather Stations Pressure Air Temp Water Temp Dewpoint Dewpoint Depression Visibility Wind Speed Wind Dir Waves Ship Positions

Legend Of The Seas

Operator: Royal Caribbean Cruises Ltd

Last reported at 2017-Nov-12 00:06 UTC. Time now 2017-Nov-20 03:59 UTC.
Position N 27°35' W 015°21'.
Warning: this ship's position is 8 days out of date.

Type: Passenger vessel. MMSI: 311378000.

Date/timePositionNaut miles runAvg speedWind from/ knotsBaromVisibWave heightAir tempDewpointWater temp
2017-Nov-12 00:06N 27°35' W 015°21'215.3
2017-Nov-12 00:00N 27°36' W 015°20'815.5
2017-Nov-11 23:30N 27°44' W 015°18'815.7
2017-Nov-11 23:00N 27°51' W 015°15'815.3
2017-Nov-11 22:30N 27°59' W 015°16'714.1
2017-Nov-11 22:01N 28°05' W 015°20'510.3
2017-Nov-11 21:30N 28°08' W 015°25'1 1.8
2017-Nov-11 21:00N 28°08' W 015°25'0 0.0
2017-Nov-11 20:30N 28°08' W 015°25'0 0.0
2017-Nov-11 20:00N 28°08' W 015°25'0 0.0
2017-Nov-11 19:30N 28°08' W 015°25'0 0.0
2017-Nov-11 18:57N 28°08' W 015°25'0 0.0
2017-Nov-11 18:30N 28°08' W 015°25'0 0.0
2017-Nov-11 17:48N 28°08' W 015°25'0 0.0
2017-Nov-11 17:30N 28°08' W 015°25'0 0.0
2017-Nov-11 17:00N 28°08' W 015°25'0 0.0
2017-Nov-11 16:21N 28°08' W 015°25'0 0.0
2017-Nov-11 16:00N 28°08' W 015°25'0 0.0
2017-Nov-11 15:30N 28°08' W 015°25'0 0.0
2017-Nov-11 14:48N 28°08' W 015°25'0 0.0
2017-Nov-11 14:18N 28°08' W 015°25'0 0.0
2017-Nov-11 13:51N 28°08' W 015°25'0 0.0
2017-Nov-11 13:24N 28°08' W 015°25'0 0.0
2017-Nov-11 12:54N 28°08' W 015°25'0 0.0
2017-Nov-11 12:24N 28°08' W 015°25'0 0.0
2017-Nov-11 11:54N 28°08' W 015°25'0 0.0
2017-Nov-11 11:24N 28°08' W 015°25'0 0.0
2017-Nov-11 10:57N 28°08' W 015°25'0 0.0
2017-Nov-11 10:27N 28°08' W 015°25'0 0.0
2017-Nov-11 09:57N 28°08' W 015°25'0 0.0
2017-Nov-11 09:24N 28°08' W 015°25'0 0.0
2017-Nov-11 08:57N 28°08' W 015°25'0 0.0
2017-Nov-11 08:27N 28°08' W 015°25'0 0.0
2017-Nov-11 08:00N 28°08' W 015°25'0 0.4
2017-Nov-11 07:30N 28°08' W 015°25'3 5.3
2017-Nov-11 07:00N 28°07' W 015°23'713.3
2017-Nov-11 06:30N 28°02' W 015°17'714.3
2017-Nov-11 06:00N 27°55' W 015°16'714.3
2017-Nov-11 05:30N 27°48' W 015°19'3012.3
2017-Nov-11 03:03N 27°44' W 015°53'114.3
2017-Nov-11 02:58N 27°45' W 015°54'613.6
2017-Nov-11 02:30N 27°51' W 015°56'1117.7
2017-Nov-11 01:54N 28°02' W 015°56'819.1
2017-Nov-11 01:31N 28°09' W 015°56'1017.4
2017-Nov-11 00:57N 28°17' W 016°01'818.2
2017-Nov-11 00:30N 28°23' W 016°07'815.2
2017-Nov-11 00:00N 28°29' W 016°14'1 0.7
2017-Nov-10 22:45N 28°28' W 016°15'0 0.0
2017-Nov-10 07:27N 28°28' W 016°15'0 0.0
2017-Nov-10 06:48N 28°28' W 016°15'0 0.0
2017-Nov-10 06:18N 28°28' W 016°15'0 0.0
2017-Nov-10 05:59N 28°28' W 016°15'0 0.7
2017-Nov-10 05:30N 28°29' W 016°14'4 6.8
2017-Nov-10 04:56N 28°28' W 016°10'613.6
2017-Nov-10 04:31N 28°27' W 016°04'714.1
2017-Nov-10 04:01N 28°28' W 015°56'815.1
2017-Nov-10 03:31N 28°33' W 015°50'713.4
2017-Nov-10 03:01N 28°37' W 015°43'714.5
2017-Nov-10 02:31N 28°40' W 015°36'714.9
2017-Nov-10 02:01N 28°39' W 015°27'815.2
2017-Nov-10 01:31N 28°40' W 015°18'815.1
2017-Nov-10 01:00N 28°40' W 015°10'815.4
2017-Nov-10 00:31N 28°41' W 015°01'815.7
2017-Nov-10 00:01N 28°43' W 014°52'915.9
2017-Nov-09 23:26N 28°46' W 014°42'715.8
2017-Nov-09 23:00N 28°46' W 014°35'915.5
2017-Nov-09 22:26N 28°48' W 014°25'1015.4
2017-Nov-09 21:48N 28°49' W 014°14'515.5
2017-Nov-09 21:28N 28°50' W 014°08'814.9
2017-Nov-09 20:55N 28°49' W 013°58'815.4
2017-Nov-09 20:23N 28°49' W 013°49'21 1.0
2017-Nov-08 22:25N 28°28' W 013°44'1210.2
2017-Nov-08 21:13N 28°23' W 013°32'312.1
2017-Nov-08 20:58N 28°26' W 013°31'612.1
2017-Nov-08 20:30N 28°32' W 013°31'611.7
2017-Nov-08 20:00N 28°38' W 013°31'610.8
2017-Nov-08 19:30N 28°43' W 013°31'511.0
2017-Nov-08 19:00N 28°49' W 013°30'510.5
2017-Nov-08 18:30N 28°54' W 013°31'4 7.8
2017-Nov-08 18:00N 28°58' W 013°32'0 0.3
2017-Nov-08 16:33N 28°58' W 013°32'0 0.0
2017-Nov-08 16:24N 28°58' W 013°32'0 0.0
2017-Nov-08 15:54N 28°58' W 013°32'0 0.0
2017-Nov-08 15:30N 28°58' W 013°32'0 0.0
2017-Nov-08 14:48N 28°58' W 013°32'0 0.0
2017-Nov-08 14:24N 28°58' W 013°32'0 0.0
2017-Nov-08 14:00N 28°58' W 013°32'0 0.0
2017-Nov-08 13:18N 28°58' W 013°32'0 0.0
2017-Nov-08 13:00N 28°58' W 013°32'0 0.0
2017-Nov-08 12:30N 28°58' W 013°32'0 0.0
2017-Nov-08 10:21N 28°58' W 013°32'0 0.0
2017-Nov-08 09:57N 28°58' W 013°32'0 0.0
2017-Nov-08 09:30N 28°58' W 013°32'0 0.0
2017-Nov-08 08:27N 28°58' W 013°32'0 0.0
2017-Nov-08 08:00N 28°58' W 013°32'2 4.7
2017-Nov-08 07:30N 28°56' W 013°32'712.7
2017-Nov-08 06:56N 28°49' W 013°34'612.7
2017-Nov-08 06:28N 28°43' W 013°36'612.6
2017-Nov-08 05:58N 28°37' W 013°38'1213.0
2017-Nov-08 05:03N 28°26' W 013°42'1113.1
2017-Nov-08 04:13N 28°15' W 013°46'511.8
2017-Nov-08 03:47N 28°10' W 013°48'311.6
2017-Nov-08 03:30N 28°08' W 013°51'712.1
2017-Nov-08 02:53N 28°04' W 013°58'512.6
2017-Nov-08 02:30N 28°01' W 014°02'612.7
2017-Nov-08 02:01N 27°57' W 014°08'612.5
2017-Nov-08 01:31N 27°54' W 014°14'612.8
2017-Nov-08 01:01N 27°50' W 014°20'712.9
2017-Nov-08 00:28N 27°46' W 014°26'613.0
2017-Nov-08 00:00N 27°42' W 014°31'912.7
2017-Nov-07 23:17N 27°37' W 014°40'512.1
2017-Nov-07 22:54N 27°34' W 014°44'712.2
2017-Nov-07 22:22N 27°34' W 014°51'512.6
2017-Nov-07 21:57N 27°33' W 014°57'612.9
2017-Nov-07 21:29N 27°35' W 015°04'611.8
2017-Nov-07 21:00N 27°38' W 015°09'611.7
2017-Nov-07 20:30N 27°43' W 015°10'613.0
2017-Nov-07 20:00N 27°50' W 015°08'613.0
2017-Nov-07 19:30N 27°56' W 015°05'612.7
2017-Nov-07 19:00N 28°02' W 015°03'612.6
2017-Nov-07 18:30N 28°07' W 014°60'612.6
2017-Nov-07 18:00N 28°13' W 014°57'714.2
2017-Nov-07 17:30N 28°20' W 014°55'713.6
2017-Nov-07 17:00N 28°27' W 014°56'713.8
2017-Nov-07 16:30N 28°33' W 014°59'713.9
2017-Nov-07 16:00N 28°40' W 015°01'713.9
2017-Nov-07 15:30N 28°47' W 015°03'713.9
2017-Nov-07 15:00N 28°53' W 015°06'713.5
2017-Nov-07 14:28N 29°00' W 015°08'  
2017-Nov-05 00:10N 27°41' W 015°23'214.1
2017-Nov-05 00:01N 27°43' W 015°21'713.7
2017-Nov-04 23:30N 27°47' W 015°15'713.6
2017-Nov-04 23:00N 27°53' W 015°14'713.8
2017-Nov-04 22:30N 28°00' W 015°15'612.9
2017-Nov-04 22:01N 28°06' W 015°18'611.0
2017-Nov-04 21:30N 28°07' W 015°24'2 3.3
2017-Nov-04 21:00N 28°08' W 015°25'0 0.0
2017-Nov-04 20:30N 28°08' W 015°25'0 0.0
2017-Nov-04 20:00N 28°08' W 015°25'0 0.0
2017-Nov-04 19:18N 28°08' W 015°25'0 0.0
2017-Nov-04 19:00N 28°08' W 015°25'0 0.0
2017-Nov-04 18:30N 28°08' W 015°25'0 0.0
2017-Nov-04 18:00N 28°08' W 015°25'0 0.0
2017-Nov-04 17:30N 28°08' W 015°25'0 0.0
2017-Nov-04 16:51N 28°08' W 015°25'0 0.0
2017-Nov-04 16:21N 28°08' W 015°25'0 0.0
2017-Nov-04 15:51N 28°08' W 015°25'0 0.0
2017-Nov-04 15:24N 28°08' W 015°25'0 0.0
2017-Nov-04 14:54N 28°08' W 015°25'0 0.0
2017-Nov-04 14:24N 28°08' W 015°25'0 0.0
2017-Nov-04 13:54N 28°08' W 015°25'0 0.0
2017-Nov-04 13:24N 28°08' W 015°25'0 0.0
2017-Nov-04 12:57N 28°08' W 015°25'0 0.0
2017-Nov-04 12:27N 28°08' W 015°25'0 0.0
2017-Nov-04 11:57N 28°08' W 015°25'0 0.0
2017-Nov-04 11:27N 28°08' W 015°25'0 0.0
2017-Nov-04 10:57N 28°08' W 015°25'0 0.0
2017-Nov-04 10:27N 28°08' W 015°25'0 0.0
2017-Nov-04 09:57N 28°08' W 015°25'0 0.0
2017-Nov-04 09:30N 28°08' W 015°25'0 0.0
2017-Nov-04 09:00N 28°08' W 015°25'0 0.0
2017-Nov-04 08:30N 28°08' W 015°25'0 0.9
2017-Nov-04 08:00N 28°08' W 015°25'1 3.0
2017-Nov-04 07:30N 28°07' W 015°24'3 6.9
2017-Nov-04 07:00N 28°06' W 015°20'815.8
2017-Nov-04 06:30N 27°59' W 015°16'815.9
2017-Nov-04 06:00N 27°52' W 015°13'713.8
2017-Nov-04 05:30N 27°47' W 015°19'50 9.7
2017-Nov-04 00:23N 28°19' W 016°02'1412.8
2017-Nov-03 23:16N 28°29' W 016°14'1 2.7
2017-Nov-03 23:00N 28°28' W 016°15'0 0.0
2017-Nov-03 22:20N 28°28' W 016°15'0 0.0
2017-Nov-03 21:59N 28°28' W 016°15'0 0.0
2017-Nov-03 21:29N 28°28' W 016°15'0 0.0
2017-Nov-03 20:02N 28°28' W 016°15'0 0.0
2017-Nov-03 19:53N 28°28' W 016°15'0 0.0
2017-Nov-03 19:23N 28°28' W 016°15'0 0.0
2017-Nov-03 18:53N 28°28' W 016°15'0 0.0
2017-Nov-03 17:38N 28°28' W 016°15'0 0.0
2017-Nov-03 17:26N 28°28' W 016°15'0 0.0
2017-Nov-03 16:56N 28°28' W 016°15'0 0.0
2017-Nov-03 16:26N 28°28' W 016°15'0 0.0
2017-Nov-03 15:41N 28°28' W 016°15'0 0.0
2017-Nov-03 15:26N 28°28' W 016°15'0 0.0
2017-Nov-03 14:56N 28°28' W 016°15'0 0.0
2017-Nov-03 14:14N 28°28' W 016°15'0 0.0
2017-Nov-03 13:56N 28°28' W 016°15'0 0.0
2017-Nov-03 13:29N 28°28' W 016°15'0 0.0
2017-Nov-03 12:56N 28°28' W 016°15'0 0.0
2017-Nov-03 12:26N 28°28' W 016°15'0 0.0
2017-Nov-03 11:59N 28°28' W 016°15'0 0.0
2017-Nov-03 11:29N 28°28' W 016°15'0 0.0
2017-Nov-03 10:56N 28°28' W 016°15'0 0.0
2017-Nov-03 10:29N 28°28' W 016°15'0 0.0
2017-Nov-03 09:44N 28°28' W 016°15'0 0.0
2017-Nov-03 09:02N 28°28' W 016°15'0 0.0
2017-Nov-03 08:47N 28°28' W 016°15'0 0.0
2017-Nov-03 08:29N 28°28' W 016°15'0 0.0
2017-Nov-03 07:47N 28°28' W 016°15'0 0.0
2017-Nov-03 07:17N 28°28' W 016°15'0 0.0
2017-Nov-03 06:47N 28°28' W 016°15'0 0.0
2017-Nov-03 06:17N 28°28' W 016°15'0 0.0
2017-Nov-03 05:56N 28°28' W 016°15'1 1.6
2017-Nov-03 05:30N 28°29' W 016°14'5 7.2
2017-Nov-03 04:52N 28°26' W 016°10'514.7
2017-Nov-03 04:30N 28°23' W 016°05'714.6
2017-Nov-03 04:00N 28°18' W 015°59'54 9.8
2017-Nov-02 22:31N 27°35' W 015°24'214.8
2017-Nov-02 22:24N 27°36' W 015°22'614.8
2017-Nov-02 22:00N 27°40' W 015°19'714.3
2017-Nov-02 21:30N 27°47' W 015°15'714.2
2017-Nov-02 21:00N 27°53' W 015°11'714.3
2017-Nov-02 20:30N 28°00' W 015°14'714.4
2017-Nov-02 20:01N 28°06' W 015°18'611.6
2017-Nov-02 19:30N 28°07' W 015°25'1 2.9
2017-Nov-02 19:00N 28°08' W 015°25'0 0.0
2017-Nov-02 18:30N 28°08' W 015°25'0 0.0
2017-Nov-02 18:00N 28°08' W 015°25'0 0.0
2017-Nov-02 17:30N 28°08' W 015°25'0 0.0
2017-Nov-02 17:00N 28°08' W 015°25'0 0.0
2017-Nov-02 16:30N 28°08' W 015°25'0 0.0
2017-Nov-02 16:00N 28°08' W 015°25'0 0.0
2017-Nov-02 15:30N 28°08' W 015°25'0 0.0
2017-Nov-02 15:00N 28°08' W 015°25'0 0.0
2017-Nov-02 14:30N 28°08' W 015°25'0 0.0
2017-Nov-02 14:00N 28°08' W 015°25'0 0.0
2017-Nov-02 13:30N 28°08' W 015°25'0 0.0
2017-Nov-02 13:00N 28°08' W 015°25'0 0.0
2017-Nov-02 12:30N 28°08' W 015°25'0 0.0
2017-Nov-02 11:51N 28°08' W 015°25'0 0.0
2017-Nov-02 11:21N 28°08' W 015°25'0 0.0
2017-Nov-02 10:51N 28°08' W 015°25'0 0.0
2017-Nov-02 10:24N 28°08' W 015°25'0 0.0
2017-Nov-02 09:54N 28°08' W 015°25'0 0.0
2017-Nov-02 09:21N 28°08' W 015°25'0 0.0
2017-Nov-02 08:54N 28°08' W 015°25'0 1.0
2017-Nov-02 08:31N 28°08' W 015°25'2 5.0
2017-Nov-02 08:01N 28°07' W 015°23'714.8
2017-Nov-02 07:30N 28°13' W 015°19'1019.0
2017-Nov-02 07:00N 28°23' W 015°16'1019.5
2017-Nov-02 06:30N 28°32' W 015°18'1019.8
2017-Nov-02 06:00N 28°42' W 015°19'1019.7
2017-Nov-02 05:30N 28°52' W 015°21'1019.3
2017-Nov-02 05:00N 29°02' W 015°23'  
Track history (hours):
 
Tides and Currents Weather Stations Pressure Air Temp Water Temp Dewpoint Dewpoint Depression Visibility Wind Speed Wind Dir Waves Ship Positions

Legend Of The Seas

Operator: Royal Caribbean Cruises Ltd

Last reported at 2017-Nov-12 00:06 UTC. Time now 2017-Nov-20 03:59 UTC.
Position N 27°35' W 015°21'.
Warning: this ship's position is 8 days out of date.

Type: Passenger vessel. MMSI: 311378000.

Date/timePositionNaut miles runAvg speedWind from/ knotsBaromVisibWave heightAir tempDewpointWater temp
2017-Nov-12 00:06N 27°35' W 015°21'215.3
2017-Nov-12 00:00N 27°36' W 015°20'815.5
2017-Nov-11 23:30N 27°44' W 015°18'815.7
2017-Nov-11 23:00N 27°51' W 015°15'815.3
2017-Nov-11 22:30N 27°59' W 015°16'714.1
2017-Nov-11 22:01N 28°05' W 015°20'510.3
2017-Nov-11 21:30N 28°08' W 015°25'1 1.8
2017-Nov-11 21:00N 28°08' W 015°25'0 0.0
2017-Nov-11 20:30N 28°08' W 015°25'0 0.0
2017-Nov-11 20:00N 28°08' W 015°25'0 0.0
2017-Nov-11 19:30N 28°08' W 015°25'0 0.0
2017-Nov-11 18:57N 28°08' W 015°25'0 0.0
2017-Nov-11 18:30N 28°08' W 015°25'0 0.0
2017-Nov-11 17:48N 28°08' W 015°25'0 0.0
2017-Nov-11 17:30N 28°08' W 015°25'0 0.0
2017-Nov-11 17:00N 28°08' W 015°25'0 0.0
2017-Nov-11 16:21N 28°08' W 015°25'0 0.0
2017-Nov-11 16:00N 28°08' W 015°25'0 0.0
2017-Nov-11 15:30N 28°08' W 015°25'0 0.0
2017-Nov-11 14:48N 28°08' W 015°25'0 0.0
2017-Nov-11 14:18N 28°08' W 015°25'0 0.0
2017-Nov-11 13:51N 28°08' W 015°25'0 0.0
2017-Nov-11 13:24N 28°08' W 015°25'0 0.0
2017-Nov-11 12:54N 28°08' W 015°25'0 0.0
2017-Nov-11 12:24N 28°08' W 015°25'0 0.0
2017-Nov-11 11:54N 28°08' W 015°25'0 0.0
2017-Nov-11 11:24N 28°08' W 015°25'0 0.0
2017-Nov-11 10:57N 28°08' W 015°25'0 0.0
2017-Nov-11 10:27N 28°08' W 015°25'0 0.0
2017-Nov-11 09:57N 28°08' W 015°25'0 0.0
2017-Nov-11 09:24N 28°08' W 015°25'0 0.0
2017-Nov-11 08:57N 28°08' W 015°25'0 0.0
2017-Nov-11 08:27N 28°08' W 015°25'0 0.0
2017-Nov-11 08:00N 28°08' W 015°25'0 0.4
2017-Nov-11 07:30N 28°08' W 015°25'3 5.3
2017-Nov-11 07:00N 28°07' W 015°23'713.3
2017-Nov-11 06:30N 28°02' W 015°17'714.3
2017-Nov-11 06:00N 27°55' W 015°16'714.3
2017-Nov-11 05:30N 27°48' W 015°19'3012.3
2017-Nov-11 03:03N 27°44' W 015°53'114.3
2017-Nov-11 02:58N 27°45' W 015°54'613.6
2017-Nov-11 02:30N 27°51' W 015°56'1117.7
2017-Nov-11 01:54N 28°02' W 015°56'819.1
2017-Nov-11 01:31N 28°09' W 015°56'1017.4
2017-Nov-11 00:57N 28°17' W 016°01'818.2
2017-Nov-11 00:30N 28°23' W 016°07'815.2
2017-Nov-11 00:00N 28°29' W 016°14'1 0.7
2017-Nov-10 22:45N 28°28' W 016°15'0 0.0
2017-Nov-10 07:27N 28°28' W 016°15'0 0.0
2017-Nov-10 06:48N 28°28' W 016°15'0 0.0
2017-Nov-10 06:18N 28°28' W 016°15'0 0.0
2017-Nov-10 05:59N 28°28' W 016°15'0 0.7
2017-Nov-10 05:30N 28°29' W 016°14'4 6.8
2017-Nov-10 04:56N 28°28' W 016°10'613.6
2017-Nov-10 04:31N 28°27' W 016°04'714.1
2017-Nov-10 04:01N 28°28' W 015°56'815.1
2017-Nov-10 03:31N 28°33' W 015°50'713.4
2017-Nov-10 03:01N 28°37' W 015°43'714.5
2017-Nov-10 02:31N 28°40' W 015°36'714.9
2017-Nov-10 02:01N 28°39' W 015°27'815.2
2017-Nov-10 01:31N 28°40' W 015°18'815.1
2017-Nov-10 01:00N 28°40' W 015°10'815.4
2017-Nov-10 00:31N 28°41' W 015°01'815.7
2017-Nov-10 00:01N 28°43' W 014°52'915.9
2017-Nov-09 23:26N 28°46' W 014°42'715.8
2017-Nov-09 23:00N 28°46' W 014°35'915.5
2017-Nov-09 22:26N 28°48' W 014°25'1015.4
2017-Nov-09 21:48N 28°49' W 014°14'515.5
2017-Nov-09 21:28N 28°50' W 014°08'814.9
2017-Nov-09 20:55N 28°49' W 013°58'815.4
2017-Nov-09 20:23N 28°49' W 013°49'21 1.0
2017-Nov-08 22:25N 28°28' W 013°44'1210.2
2017-Nov-08 21:13N 28°23' W 013°32'312.1
2017-Nov-08 20:58N 28°26' W 013°31'612.1
2017-Nov-08 20:30N 28°32' W 013°31'611.7
2017-Nov-08 20:00N 28°38' W 013°31'610.8
2017-Nov-08 19:30N 28°43' W 013°31'511.0
2017-Nov-08 19:00N 28°49' W 013°30'510.5
2017-Nov-08 18:30N 28°54' W 013°31'4 7.8
2017-Nov-08 18:00N 28°58' W 013°32'0 0.3
2017-Nov-08 16:33N 28°58' W 013°32'0 0.0
2017-Nov-08 16:24N 28°58' W 013°32'0 0.0
2017-Nov-08 15:54N 28°58' W 013°32'0 0.0
2017-Nov-08 15:30N 28°58' W 013°32'0 0.0
2017-Nov-08 14:48N 28°58' W 013°32'0 0.0
2017-Nov-08 14:24N 28°58' W 013°32'0 0.0
2017-Nov-08 14:00N 28°58' W 013°32'0 0.0
2017-Nov-08 13:18N 28°58' W 013°32'0 0.0
2017-Nov-08 13:00N 28°58' W 013°32'0 0.0
2017-Nov-08 12:30N 28°58' W 013°32'0 0.0
2017-Nov-08 10:21N 28°58' W 013°32'0 0.0
2017-Nov-08 09:57N 28°58' W 013°32'0 0.0
2017-Nov-08 09:30N 28°58' W 013°32'0 0.0
2017-Nov-08 08:27N 28°58' W 013°32'0 0.0
2017-Nov-08 08:00N 28°58' W 013°32'2 4.7
2017-Nov-08 07:30N 28°56' W 013°32'712.7
2017-Nov-08 06:56N 28°49' W 013°34'612.7
2017-Nov-08 06:28N 28°43' W 013°36'612.6
2017-Nov-08 05:58N 28°37' W 013°38'1213.0
2017-Nov-08 05:03N 28°26' W 013°42'1113.1
2017-Nov-08 04:13N 28°15' W 013°46'511.8
2017-Nov-08 03:47N 28°10' W 013°48'311.6
2017-Nov-08 03:30N 28°08' W 013°51'712.1
2017-Nov-08 02:53N 28°04' W 013°58'512.6
2017-Nov-08 02:30N 28°01' W 014°02'612.7
2017-Nov-08 02:01N 27°57' W 014°08'612.5
2017-Nov-08 01:31N 27°54' W 014°14'612.8
2017-Nov-08 01:01N 27°50' W 014°20'712.9
2017-Nov-08 00:28N 27°46' W 014°26'613.0
2017-Nov-08 00:00N 27°42' W 014°31'912.7
2017-Nov-07 23:17N 27°37' W 014°40'512.1
2017-Nov-07 22:54N 27°34' W 014°44'712.2
2017-Nov-07 22:22N 27°34' W 014°51'512.6
2017-Nov-07 21:57N 27°33' W 014°57'612.9
2017-Nov-07 21:29N 27°35' W 015°04'611.8
2017-Nov-07 21:00N 27°38' W 015°09'611.7
2017-Nov-07 20:30N 27°43' W 015°10'613.0
2017-Nov-07 20:00N 27°50' W 015°08'613.0
2017-Nov-07 19:30N 27°56' W 015°05'612.7
2017-Nov-07 19:00N 28°02' W 015°03'612.6
2017-Nov-07 18:30N 28°07' W 014°60'612.6
2017-Nov-07 18:00N 28°13' W 014°57'714.2
2017-Nov-07 17:30N 28°20' W 014°55'713.6
2017-Nov-07 17:00N 28°27' W 014°56'713.8
2017-Nov-07 16:30N 28°33' W 014°59'713.9
2017-Nov-07 16:00N 28°40' W 015°01'713.9
2017-Nov-07 15:30N 28°47' W 015°03'713.9
2017-Nov-07 15:00N 28°53' W 015°06'713.5
2017-Nov-07 14:28N 29°00' W 015°08'  
2017-Nov-05 00:10N 27°41' W 015°23'214.1
2017-Nov-05 00:01N 27°43' W 015°21'713.7
2017-Nov-04 23:30N 27°47' W 015°15'713.6
2017-Nov-04 23:00N 27°53' W 015°14'713.8
2017-Nov-04 22:30N 28°00' W 015°15'612.9
2017-Nov-04 22:01N 28°06' W 015°18'611.0
2017-Nov-04 21:30N 28°07' W 015°24'2 3.3
2017-Nov-04 21:00N 28°08' W 015°25'0 0.0
2017-Nov-04 20:30N 28°08' W 015°25'0 0.0
2017-Nov-04 20:00N 28°08' W 015°25'0 0.0
2017-Nov-04 19:18N 28°08' W 015°25'0 0.0
2017-Nov-04 19:00N 28°08' W 015°25'0 0.0
2017-Nov-04 18:30N 28°08' W 015°25'0 0.0
2017-Nov-04 18:00N 28°08' W 015°25'0 0.0
2017-Nov-04 17:30N 28°08' W 015°25'0 0.0
2017-Nov-04 16:51N 28°08' W 015°25'0 0.0
2017-Nov-04 16:21N 28°08' W 015°25'0 0.0
2017-Nov-04 15:51N 28°08' W 015°25'0 0.0
2017-Nov-04 15:24N 28°08' W 015°25'0 0.0
2017-Nov-04 14:54N 28°08' W 015°25'0 0.0
2017-Nov-04 14:24N 28°08' W 015°25'0 0.0
2017-Nov-04 13:54N 28°08' W 015°25'0 0.0
2017-Nov-04 13:24N 28°08' W 015°25'0 0.0
2017-Nov-04 12:57N 28°08' W 015°25'0 0.0
2017-Nov-04 12:27N 28°08' W 015°25'0 0.0
2017-Nov-04 11:57N 28°08' W 015°25'0 0.0
2017-Nov-04 11:27N 28°08' W 015°25'0 0.0
2017-Nov-04 10:57N 28°08' W 015°25'0 0.0
2017-Nov-04 10:27N 28°08' W 015°25'0 0.0
2017-Nov-04 09:57N 28°08' W 015°25'0 0.0
2017-Nov-04 09:30N 28°08' W 015°25'0 0.0
2017-Nov-04 09:00N 28°08' W 015°25'0 0.0
2017-Nov-04 08:30N 28°08' W 015°25'0 0.9
2017-Nov-04 08:00N 28°08' W 015°25'1 3.0
2017-Nov-04 07:30N 28°07' W 015°24'3 6.9
2017-Nov-04 07:00N 28°06' W 015°20'815.8
2017-Nov-04 06:30N 27°59' W 015°16'815.9
2017-Nov-04 06:00N 27°52' W 015°13'713.8
2017-Nov-04 05:30N 27°47' W 015°19'50 9.7
2017-Nov-04 00:23N 28°19' W 016°02'1412.8
2017-Nov-03 23:16N 28°29' W 016°14'1 2.7
2017-Nov-03 23:00N 28°28' W 016°15'0 0.0
2017-Nov-03 22:20N 28°28' W 016°15'0 0.0
2017-Nov-03 21:59N 28°28' W 016°15'0 0.0
2017-Nov-03 21:29N 28°28' W 016°15'0 0.0
2017-Nov-03 20:02N 28°28' W 016°15'0 0.0
2017-Nov-03 19:53N 28°28' W 016°15'0 0.0
2017-Nov-03 19:23N 28°28' W 016°15'0 0.0
2017-Nov-03 18:53N 28°28' W 016°15'0 0.0
2017-Nov-03 17:38N 28°28' W 016°15'0 0.0
2017-Nov-03 17:26N 28°28' W 016°15'0 0.0
2017-Nov-03 16:56N 28°28' W 016°15'0 0.0
2017-Nov-03 16:26N 28°28' W 016°15'0 0.0
2017-Nov-03 15:41N 28°28' W 016°15'0 0.0
2017-Nov-03 15:26N 28°28' W 016°15'0 0.0
2017-Nov-03 14:56N 28°28' W 016°15'0 0.0
2017-Nov-03 14:14N 28°28' W 016°15'0 0.0
2017-Nov-03 13:56N 28°28' W 016°15'0 0.0
2017-Nov-03 13:29N 28°28' W 016°15'0 0.0
2017-Nov-03 12:56N 28°28' W 016°15'0 0.0
2017-Nov-03 12:26N 28°28' W 016°15'0 0.0
2017-Nov-03 11:59N 28°28' W 016°15'0 0.0
2017-Nov-03 11:29N 28°28' W 016°15'0 0.0
2017-Nov-03 10:56N 28°28' W 016°15'0 0.0
2017-Nov-03 10:29N 28°28' W 016°15'0 0.0
2017-Nov-03 09:44N 28°28' W 016°15'0 0.0
2017-Nov-03 09:02N 28°28' W 016°15'0 0.0
2017-Nov-03 08:47N 28°28' W 016°15'0 0.0
2017-Nov-03 08:29N 28°28' W 016°15'0 0.0
2017-Nov-03 07:47N 28°28' W 016°15'0 0.0
2017-Nov-03 07:17N 28°28' W 016°15'0 0.0
2017-Nov-03 06:47N 28°28' W 016°15'0 0.0
2017-Nov-03 06:17N 28°28' W 016°15'0 0.0
2017-Nov-03 05:56N 28°28' W 016°15'1 1.6
2017-Nov-03 05:30N 28°29' W 016°14'5 7.2
2017-Nov-03 04:52N 28°26' W 016°10'514.7
2017-Nov-03 04:30N 28°23' W 016°05'714.6
2017-Nov-03 04:00N 28°18' W 015°59'54 9.8
2017-Nov-02 22:31N 27°35' W 015°24'214.8
2017-Nov-02 22:24N 27°36' W 015°22'614.8
2017-Nov-02 22:00N 27°40' W 015°19'714.3
2017-Nov-02 21:30N 27°47' W 015°15'714.2
2017-Nov-02 21:00N 27°53' W 015°11'714.3
2017-Nov-02 20:30N 28°00' W 015°14'714.4
2017-Nov-02 20:01N 28°06' W 015°18'611.6
2017-Nov-02 19:30N 28°07' W 015°25'1 2.9
2017-Nov-02 19:00N 28°08' W 015°25'0 0.0
2017-Nov-02 18:30N 28°08' W 015°25'0 0.0
2017-Nov-02 18:00N 28°08' W 015°25'0 0.0
2017-Nov-02 17:30N 28°08' W 015°25'0 0.0
2017-Nov-02 17:00N 28°08' W 015°25'0 0.0
2017-Nov-02 16:30N 28°08' W 015°25'0 0.0
2017-Nov-02 16:00N 28°08' W 015°25'0 0.0
2017-Nov-02 15:30N 28°08' W 015°25'0 0.0
2017-Nov-02 15:00N 28°08' W 015°25'0 0.0
2017-Nov-02 14:30N 28°08' W 015°25'0 0.0
2017-Nov-02 14:00N 28°08' W 015°25'0 0.0
2017-Nov-02 13:30N 28°08' W 015°25'0 0.0
2017-Nov-02 13:00N 28°08' W 015°25'0 0.0
2017-Nov-02 12:30N 28°08' W 015°25'0 0.0
2017-Nov-02 11:51N 28°08' W 015°25'0 0.0
2017-Nov-02 11:21N 28°08' W 015°25'0 0.0
2017-Nov-02 10:51N 28°08' W 015°25'0 0.0
2017-Nov-02 10:24N 28°08' W 015°25'0 0.0
2017-Nov-02 09:54N 28°08' W 015°25'0 0.0
2017-Nov-02 09:21N 28°08' W 015°25'0 0.0
2017-Nov-02 08:54N 28°08' W 015°25'0 1.0
2017-Nov-02 08:31N 28°08' W 015°25'2 5.0
2017-Nov-02 08:01N 28°07' W 015°23'714.8
2017-Nov-02 07:30N 28°13' W 015°19'1019.0
2017-Nov-02 07:00N 28°23' W 015°16'1019.5
2017-Nov-02 06:30N 28°32' W 015°18'1019.8
2017-Nov-02 06:00N 28°42' W 015°19'1019.7
2017-Nov-02 05:30N 28°52' W 015°21'1019.3
2017-Nov-02 05:00N 29°02' W 015°23'  

Dump ship's entire track history